createdAt,value
2023-01-23T00:02:11.903Z,100.00
2023-01-23T00:07:13.576Z,100.00
2023-01-23T00:12:15.196Z,100.00
2023-01-23T00:17:16.894Z,100.00
2023-01-23T00:22:18.568Z,100.00
2023-01-23T00:27:20.177Z,100.00
2023-01-23T00:32:22.000Z,100.00
2023-01-23T00:37:23.638Z,100.00
2023-01-23T00:42:25.334Z,100.00
2023-01-23T00:47:26.968Z,100.00
2023-01-23T00:52:29.398Z,100.00
2023-01-23T00:57:31.033Z,100.00
2023-01-23T01:02:32.704Z,100.00
2023-01-23T01:07:34.402Z,100.00
2023-01-23T01:12:36.065Z,100.00
2023-01-23T01:17:37.717Z,100.00
2023-01-23T01:22:39.369Z,100.00
2023-01-23T01:27:41.091Z,100.00
2023-01-23T01:32:43.965Z,100.00
2023-01-23T01:37:45.881Z,100.00
2023-01-23T01:42:59.596Z,100.00
2023-01-23T01:48:01.551Z,100.00
2023-01-23T01:53:03.308Z,100.00
2023-01-23T01:58:05.020Z,100.00
2023-01-23T02:03:07.212Z,100.00
2023-01-23T02:08:31.789Z,100.00
2023-01-23T02:13:36.940Z,100.00
2023-01-23T02:18:44.624Z,100.00
2023-01-23T02:24:08.276Z,100.00
2023-01-23T02:29:10.894Z,100.00
2023-01-23T02:34:13.986Z,100.00
2023-01-23T02:39:20.019Z,100.00
2023-01-23T02:44:27.270Z,100.00
2023-01-23T02:49:29.095Z,100.00
2023-01-23T02:54:31.790Z,100.00
2023-01-23T02:59:52.147Z,100.00
2023-01-23T03:04:54.057Z,100.00
2023-01-23T03:09:55.832Z,100.00
2023-01-23T03:14:58.792Z,100.00
2023-01-23T03:20:01.305Z,99.85
2023-01-23T03:25:03.059Z,100.00
2023-01-23T03:30:14.174Z,100.00
2023-01-23T03:35:16.813Z,99.02
2023-01-23T03:40:39.395Z,98.68
2023-01-23T03:45:41.067Z,97.94
2023-01-23T03:50:42.770Z,96.48
2023-01-23T03:55:48.089Z,96.59
2023-01-23T04:00:49.848Z,96.26
2023-01-23T04:05:57.241Z,97.32
2023-01-23T04:11:07.524Z,99.41
2023-01-23T04:16:09.309Z,99.82
2023-01-23T04:21:11.652Z,99.09
2023-01-23T04:26:13.952Z,100.00
2023-01-23T04:31:15.661Z,100.00
2023-01-23T04:36:17.413Z,100.00
2023-01-23T04:41:25.240Z,100.00
2023-01-23T04:46:26.909Z,99.20
2023-01-23T04:51:28.690Z,100.00
2023-01-23T04:56:30.403Z,100.00
2023-01-23T05:01:32.565Z,100.00
2023-01-23T05:06:34.478Z,100.00
2023-01-23T05:11:36.122Z,100.00
2023-01-23T05:16:37.784Z,100.00
2023-01-23T05:21:39.491Z,100.00
2023-01-23T05:26:41.205Z,100.00
2023-01-23T05:31:42.979Z,100.00
2023-01-23T05:36:44.641Z,100.00
2023-01-23T05:41:46.275Z,100.00
2023-01-23T05:46:47.921Z,100.00
2023-01-23T05:51:49.655Z,100.00
2023-01-23T05:56:51.332Z,100.00
2023-01-23T06:01:53.040Z,100.00
2023-01-23T06:06:54.692Z,100.00
2023-01-23T06:11:56.338Z,100.00
2023-01-23T06:16:58.018Z,100.00
2023-01-23T06:21:59.722Z,100.00
2023-01-23T06:27:01.397Z,100.00
2023-01-23T06:32:04.212Z,100.00
2023-01-23T06:37:05.889Z,100.00
2023-01-23T06:42:10.376Z,100.00
2023-01-23T06:47:12.079Z,100.00
2023-01-23T06:52:13.714Z,100.00
2023-01-23T06:57:15.595Z,100.00
2023-01-23T07:02:17.267Z,100.00
2023-01-23T07:07:19.613Z,100.00
2023-01-23T07:12:21.389Z,100.00
2023-01-23T07:17:23.041Z,100.00
2023-01-23T07:22:24.778Z,100.00
2023-01-23T07:27:26.487Z,100.00
2023-01-23T07:32:28.197Z,100.00
2023-01-23T07:37:30.009Z,100.00
2023-01-23T07:42:31.655Z,100.00
2023-01-23T07:47:33.331Z,100.00
2023-01-23T07:52:35.087Z,100.00
2023-01-23T07:57:36.760Z,100.00
2023-01-23T08:02:38.668Z,100.00
2023-01-23T08:07:40.406Z,100.00
2023-01-23T08:12:42.056Z,100.00
2023-01-23T08:17:43.706Z,100.00
2023-01-23T08:22:45.476Z,100.00
2023-01-23T08:27:47.360Z,100.00
2023-01-23T08:32:49.206Z,100.00
2023-01-23T08:37:50.894Z,100.00
2023-01-23T08:42:52.563Z,100.00
2023-01-23T08:47:54.285Z,100.00
2023-01-23T08:52:55.997Z,100.00
2023-01-23T08:57:58.465Z,100.00
2023-01-23T09:03:01.112Z,100.00
2023-01-23T09:08:02.905Z,100.00
2023-01-23T09:13:04.941Z,100.00
2023-01-23T09:18:07.009Z,100.00
2023-01-23T09:23:08.743Z,100.00
2023-01-23T09:28:10.602Z,100.00
2023-01-23T09:33:12.374Z,100.00
2023-01-23T09:38:14.042Z,100.00
2023-01-23T09:43:18.323Z,100.00
2023-01-23T09:48:28.000Z,100.00
2023-01-23T09:53:37.406Z,100.00
2023-01-23T09:58:51.377Z,100.00
2023-01-23T10:03:53.066Z,100.00
2023-01-23T10:09:13.870Z,100.00
2023-01-23T10:14:41.474Z,100.00
2023-01-23T10:20:18.415Z,100.00
2023-01-23T10:25:25.368Z,100.00
2023-01-23T10:30:38.608Z,100.00
2023-01-23T10:35:47.578Z,100.00
2023-01-23T10:41:08.915Z,100.00
2023-01-23T10:46:16.835Z,100.00
2023-01-23T10:51:26.270Z,100.00
2023-01-23T10:56:28.679Z,100.00
2023-01-23T11:01:34.346Z,100.00
2023-01-23T11:06:36.249Z,100.00
2023-01-23T11:11:40.115Z,100.00
2023-01-23T11:16:41.812Z,100.00
2023-01-23T11:22:33.333Z,100.00
2023-01-23T11:27:35.240Z,100.00
2023-01-23T11:32:51.508Z,100.00
2023-01-23T11:37:55.887Z,100.00
2023-01-23T11:42:57.667Z,100.00
2023-01-23T11:48:17.319Z,100.00
2023-01-23T11:53:48.332Z,100.00
2023-01-23T11:58:52.706Z,100.00
2023-01-23T12:04:09.213Z,100.00
2023-01-23T12:09:16.737Z,100.00
2023-01-23T12:14:29.970Z,100.00
2023-01-23T12:20:05.606Z,100.00
2023-01-23T12:25:48.529Z,100.00
2023-01-23T12:30:59.112Z,100.00
2023-01-23T12:36:24.067Z,100.00
2023-01-23T12:41:40.284Z,100.00
2023-01-23T12:46:54.056Z,100.00
2023-01-23T12:52:02.962Z,100.00
2023-01-23T12:57:06.127Z,100.00
2023-01-23T13:02:30.437Z,100.00
2023-01-23T13:07:38.112Z,100.00
2023-01-23T13:12:40.240Z,100.00
2023-01-23T13:18:25.148Z,100.00
2023-01-23T13:23:30.955Z,100.00
2023-01-23T13:28:44.862Z,100.00
2023-01-23T13:33:51.598Z,100.00
2023-01-23T13:39:00.472Z,100.00
2023-01-23T13:44:06.638Z,100.00
2023-01-23T14:22:35.413Z,100.00
2023-01-23T14:27:52.176Z,100.00
2023-01-23T14:32:55.066Z,100.00
2023-01-23T14:38:02.417Z,100.00
2023-01-23T14:43:10.221Z,100.00
2023-01-23T14:48:17.363Z,100.00
2023-01-23T14:53:19.012Z,100.00
2023-01-23T14:58:25.347Z,100.00
2023-01-23T15:03:55.313Z,100.00
2023-01-23T15:09:14.338Z,100.00
2023-01-23T15:14:26.448Z,100.00
2023-01-23T15:19:28.860Z,100.00
2023-01-23T15:24:30.511Z,100.00
2023-01-23T15:29:33.000Z,100.00
2023-01-23T15:34:34.869Z,100.00
2023-01-23T15:39:40.793Z,100.00
2023-01-23T15:44:43.414Z,100.00
2023-01-23T15:49:45.409Z,100.00
2023-01-23T15:54:48.734Z,100.00
2023-01-23T15:59:50.551Z,100.00
2023-01-23T16:04:52.610Z,100.00
2023-01-23T16:09:56.460Z,100.00
2023-01-23T16:14:58.377Z,100.00
2023-01-23T16:20:00.095Z,100.00
2023-01-23T16:25:02.034Z,100.00
2023-01-23T16:30:04.056Z,100.00
2023-01-23T16:35:06.680Z,100.00
2023-01-23T16:40:25.865Z,100.00
2023-01-23T16:45:30.270Z,100.00
2023-01-23T16:50:35.958Z,100.00
2023-01-23T16:55:41.433Z,100.00
2023-01-23T17:00:43.948Z,100.00
2023-01-23T17:05:46.037Z,100.00
2023-01-23T17:11:00.554Z,100.00
2023-01-23T17:16:07.353Z,100.00
2023-01-23T17:21:24.076Z,100.00
2023-01-23T17:26:26.142Z,100.00
2023-01-23T17:31:28.901Z,100.00
2023-01-23T17:36:31.577Z,100.00
2023-01-23T17:41:33.468Z,100.00
2023-01-23T17:46:38.210Z,100.00
2023-01-23T17:51:40.747Z,100.00
2023-01-23T17:56:42.608Z,100.00
2023-01-23T18:01:44.845Z,100.00
2023-01-23T18:06:47.991Z,100.00
2023-01-23T18:11:54.508Z,100.00
2023-01-23T18:16:57.350Z,100.00
2023-01-23T18:22:04.517Z,100.00
2023-01-23T18:27:25.003Z,100.00
2023-01-23T18:33:05.273Z,100.00
2023-01-23T18:38:31.997Z,100.00
2023-01-23T18:43:41.677Z,100.00
2023-01-23T18:48:46.245Z,100.00
2023-01-23T18:53:54.757Z,100.00
2023-01-23T18:59:22.669Z,100.00
2023-01-23T19:04:38.344Z,100.00
2023-01-23T19:09:46.559Z,100.00
2023-01-23T19:15:10.470Z,100.00
2023-01-23T19:20:16.453Z,100.00
2023-01-23T19:25:20.043Z,100.00
2023-01-23T19:30:23.425Z,100.00
2023-01-23T19:35:25.950Z,100.00
2023-01-23T19:40:28.339Z,100.00
2023-01-23T19:45:30.870Z,100.00
2023-01-23T19:50:33.970Z,100.00
2023-01-23T19:55:40.472Z,100.00
2023-01-23T20:00:44.115Z,100.00
2023-01-23T20:05:46.787Z,100.00
2023-01-23T20:10:49.189Z,100.00
2023-01-23T20:15:51.822Z,100.00
2023-01-23T20:21:00.077Z,100.00
2023-01-23T20:26:03.209Z,100.00
2023-01-23T20:31:13.583Z,100.00
2023-01-23T20:36:17.469Z,100.00
2023-01-23T20:41:21.294Z,100.00
2023-01-23T20:46:24.874Z,100.00
2023-01-23T20:51:27.644Z,100.00
2023-01-23T20:56:30.720Z,100.00
2023-01-23T21:01:54.975Z,100.00
2023-01-23T21:06:58.389Z,100.00
2023-01-23T21:12:00.528Z,100.00
2023-01-23T21:17:05.453Z,100.00
2023-01-23T21:22:08.184Z,100.00
2023-01-23T21:27:14.041Z,100.00
2023-01-23T21:32:16.201Z,100.00
2023-01-23T21:37:18.544Z,100.00
2023-01-23T21:42:20.211Z,100.00
2023-01-23T21:47:22.214Z,100.00
2023-01-23T21:52:24.013Z,100.00
2023-01-23T21:57:25.619Z,100.00
2023-01-23T22:02:27.916Z,100.00
2023-01-23T22:07:29.557Z,100.00
2023-01-23T22:12:31.194Z,100.00
2023-01-23T22:17:33.701Z,100.00
2023-01-23T22:22:35.321Z,100.00
2023-01-23T22:27:37.032Z,100.00
2023-01-23T22:32:39.063Z,100.00
2023-01-23T22:37:41.416Z,100.00
2023-01-23T22:42:43.042Z,100.00
2023-01-23T22:47:44.679Z,100.00
2023-01-23T22:52:47.251Z,100.00
2023-01-23T22:57:48.953Z,100.00
2023-01-23T23:02:50.677Z,100.00
2023-01-23T23:07:52.328Z,100.00
2023-01-23T23:12:54.743Z,100.00
2023-01-23T23:17:56.520Z,100.00
2023-01-23T23:22:58.252Z,100.00
2023-01-23T23:28:00.079Z,100.00
2023-01-23T23:33:01.804Z,100.00
2023-01-23T23:38:03.531Z,100.00
2023-01-23T23:43:05.780Z,100.00
2023-01-23T23:48:07.430Z,100.00
2023-01-23T23:53:09.058Z,100.00
2023-01-23T23:58:10.709Z,100.00
